createdAt,value
2018-06-20T00:01:34.955Z,74.32
2018-06-20T00:04:04.349Z,74.67
2018-06-20T00:06:33.518Z,75.09
2018-06-20T00:09:02.646Z,74.33
2018-06-20T00:11:32.398Z,74.73
2018-06-20T00:14:01.657Z,74.01
2018-06-20T00:16:30.841Z,74.37
2018-06-20T00:19:00.062Z,74.07
2018-06-20T00:21:29.343Z,75.06
2018-06-20T00:23:58.465Z,74.46
2018-06-20T00:26:27.639Z,75.66
2018-06-20T00:28:56.939Z,74.52
2018-06-20T00:31:26.011Z,75.46
2018-06-20T00:33:55.124Z,74.79
2018-06-20T00:36:24.190Z,74.92
2018-06-20T00:38:53.314Z,74.75
2018-06-20T00:41:22.375Z,75.38
2018-06-20T00:43:51.437Z,74.78
2018-06-20T00:46:20.502Z,75.45
2018-06-20T00:48:49.692Z,74.61
2018-06-20T00:51:18.817Z,75.60
2018-06-20T00:53:48.010Z,75.37
2018-06-20T00:56:21.049Z,75.15
2018-06-20T00:58:50.278Z,74.92
2018-06-20T01:01:19.906Z,75.65
2018-06-20T01:03:49.128Z,75.23
2018-06-20T01:06:18.366Z,74.42
2018-06-20T01:08:52.869Z,75.11
2018-06-20T01:11:22.198Z,74.94
2018-06-20T01:13:51.305Z,75.36
2018-06-20T01:16:20.417Z,75.51
2018-06-20T01:18:49.508Z,75.53
2018-06-20T01:21:18.600Z,75.93
2018-06-20T01:23:48.060Z,75.77
2018-06-20T01:26:17.185Z,75.90
2018-06-20T01:28:46.245Z,75.95
2018-06-20T01:31:15.371Z,75.60
2018-06-20T01:33:44.503Z,75.39
2018-06-20T01:36:13.869Z,75.58
2018-06-20T01:38:43.026Z,74.92
2018-06-20T01:41:12.229Z,75.32
2018-06-20T01:43:41.366Z,75.10
2018-06-20T01:46:11.929Z,75.45
2018-06-20T01:48:41.197Z,74.86
2018-06-20T01:51:10.426Z,75.22
2018-06-20T01:53:39.543Z,75.86
2018-06-20T01:56:08.684Z,75.48
2018-06-20T01:58:37.781Z,75.34
2018-06-20T02:01:06.913Z,75.32
2018-06-20T02:03:35.972Z,76.29
2018-06-20T02:06:05.994Z,76.04
2018-06-20T02:08:35.089Z,75.65
2018-06-20T02:11:04.233Z,74.65
2018-06-20T02:13:33.297Z,75.28
2018-06-20T02:16:02.382Z,75.41
2018-06-20T02:18:31.567Z,76.18
2018-06-20T02:21:00.746Z,75.82
2018-06-20T02:23:29.959Z,75.85
2018-06-20T02:25:59.161Z,76.24
2018-06-20T02:28:28.499Z,75.49
2018-06-20T02:30:57.662Z,75.15
2018-06-20T02:33:26.848Z,75.50
2018-06-20T02:35:59.611Z,75.65
2018-06-20T02:38:28.716Z,75.73
2018-06-20T02:40:57.830Z,75.80
2018-06-20T02:43:26.945Z,76.56
2018-06-20T02:45:56.040Z,76.27
2018-06-20T02:48:25.255Z,76.60
2018-06-20T02:50:54.351Z,75.55
2018-06-20T02:53:23.476Z,75.39
2018-06-20T02:55:52.685Z,75.07
2018-06-20T02:58:21.779Z,75.34
2018-06-20T03:00:50.957Z,75.67
2018-06-20T03:03:20.091Z,75.53
2018-06-20T03:05:49.753Z,75.52
2018-06-20T03:08:18.850Z,75.50
2018-06-20T03:10:47.945Z,76.26
2018-06-20T03:13:17.144Z,76.11
2018-06-20T03:15:46.275Z,75.60
2018-06-20T03:18:15.586Z,75.55
2018-06-20T03:20:44.740Z,75.25
2018-06-20T03:23:13.851Z,75.39
2018-06-20T03:25:42.958Z,75.26
2018-06-20T03:28:12.080Z,74.98
2018-06-20T03:30:41.230Z,74.68
2018-06-20T03:33:10.352Z,74.32
2018-06-20T03:35:39.451Z,74.77
2018-06-20T03:38:08.602Z,75.00
2018-06-20T03:40:37.802Z,74.88
2018-06-20T03:43:06.937Z,74.45
2018-06-20T03:45:36.086Z,74.98
2018-06-20T03:48:05.182Z,75.04
2018-06-20T03:50:34.246Z,74.71
2018-06-20T03:53:03.425Z,75.75
2018-06-20T03:55:32.532Z,75.41
2018-06-20T03:58:01.634Z,75.55
2018-06-20T04:00:30.938Z,75.23
2018-06-20T04:03:00.988Z,74.44
2018-06-20T04:05:30.800Z,75.33
2018-06-20T04:08:00.032Z,75.17
2018-06-20T04:10:29.334Z,75.37
2018-06-20T04:12:58.551Z,74.97
2018-06-20T04:15:27.675Z,74.77
2018-06-20T04:17:56.734Z,75.74
2018-06-20T04:20:25.897Z,75.36
2018-06-20T04:22:54.962Z,75.97
2018-06-20T04:25:24.540Z,75.24
2018-06-20T04:27:53.615Z,75.55
2018-06-20T04:30:22.730Z,75.69
2018-06-20T04:32:51.826Z,75.01
2018-06-20T04:35:20.934Z,75.74
2018-06-20T04:37:50.038Z,75.24
2018-06-20T04:40:19.183Z,76.15
2018-06-20T04:42:48.327Z,75.96
2018-06-20T04:45:17.489Z,75.85
2018-06-20T04:47:46.590Z,75.63
2018-06-20T04:50:15.699Z,75.69
2018-06-20T04:52:44.770Z,75.73
2018-06-20T04:55:14.181Z,75.09
2018-06-20T04:57:43.261Z,75.71
2018-06-20T05:00:12.331Z,74.93
2018-06-20T05:02:41.483Z,74.43
2018-06-20T05:05:10.580Z,75.13
2018-06-20T05:07:39.637Z,74.87
2018-06-20T05:10:08.694Z,73.98
2018-06-20T05:12:39.340Z,74.12
2018-06-20T05:15:14.686Z,74.13
2018-06-20T05:17:43.803Z,74.93
2018-06-20T05:20:12.857Z,74.69
2018-06-20T05:22:42.250Z,74.53
2018-06-20T05:25:11.257Z,73.90
2018-06-20T05:27:40.683Z,74.09
2018-06-20T05:30:09.794Z,73.47
2018-06-20T05:32:38.878Z,74.15
2018-06-20T05:35:07.940Z,73.61
2018-06-20T05:37:37.539Z,73.62
2018-06-20T05:40:06.988Z,73.49
2018-06-20T05:42:36.309Z,72.65
2018-06-20T05:45:05.392Z,73.50
2018-06-20T05:47:34.655Z,73.18
2018-06-20T05:50:03.841Z,73.06
2018-06-20T05:52:32.958Z,73.18
2018-06-20T05:55:02.127Z,73.60
2018-06-20T05:57:31.264Z,72.99
2018-06-20T06:00:00.425Z,73.04
2018-06-20T06:02:29.628Z,73.20
2018-06-20T06:04:58.865Z,72.66
2018-06-20T06:07:28.373Z,72.49
2018-06-20T06:09:57.615Z,73.13
2018-06-20T06:12:26.763Z,72.07
2018-06-20T06:14:55.928Z,71.81
2018-06-20T06:17:25.086Z,72.03
2018-06-20T06:19:54.350Z,72.03
2018-06-20T06:22:23.515Z,71.69
2018-06-20T06:24:53.255Z,71.57
2018-06-20T06:27:22.534Z,70.83
2018-06-20T06:29:51.734Z,70.68
2018-06-20T06:32:20.924Z,70.23
2018-06-20T06:34:50.031Z,70.62
2018-06-20T06:37:19.483Z,70.53
2018-06-20T06:39:49.465Z,69.52
2018-06-20T06:42:18.591Z,70.18
2018-06-20T06:44:47.765Z,69.74
2018-06-20T06:47:16.859Z,69.50
2018-06-20T06:49:46.274Z,68.64
2018-06-20T06:52:16.055Z,68.86
2018-06-20T06:54:45.570Z,68.40
2018-06-20T06:57:14.871Z,67.72
2018-06-20T06:59:44.345Z,67.42
2018-06-20T07:02:13.576Z,67.83
2018-06-20T07:04:43.033Z,66.60
2018-06-20T07:07:12.375Z,66.51
2018-06-20T07:09:41.455Z,66.47
2018-06-20T07:12:10.694Z,65.64
2018-06-20T07:14:39.960Z,65.08
2018-06-20T07:17:09.098Z,65.71
2018-06-20T07:19:38.339Z,64.91
2018-06-20T07:22:07.498Z,65.58
2018-06-20T07:24:36.631Z,65.50
2018-06-20T07:27:06.681Z,65.01
2018-06-20T07:29:35.784Z,63.86
2018-06-20T07:32:05.425Z,63.37
2018-06-20T07:34:34.644Z,62.92
2018-06-20T07:37:03.999Z,62.31
2018-06-20T07:39:33.189Z,61.93
2018-06-20T07:42:02.385Z,60.99
2018-06-20T07:44:31.887Z,61.09
2018-06-20T07:47:01.384Z,60.30
2018-06-20T07:49:30.701Z,59.90
2018-06-20T07:52:00.406Z,59.83
2018-06-20T07:54:30.530Z,60.18
2018-06-20T07:56:59.642Z,59.44
2018-06-20T07:59:34.077Z,57.94
2018-06-20T08:02:19.830Z,58.85
2018-06-20T08:04:54.266Z,59.07
2018-06-20T08:07:28.647Z,58.66
2018-06-20T08:10:03.199Z,58.28
2018-06-20T08:12:37.512Z,57.51
2018-06-20T08:15:11.910Z,57.87
2018-06-20T08:17:46.533Z,57.10
2018-06-20T08:20:22.105Z,56.54
2018-06-20T08:22:51.308Z,55.36
2018-06-20T08:25:20.473Z,56.07
2018-06-20T08:27:49.678Z,55.42
2018-06-20T08:30:18.878Z,54.38
2018-06-20T08:32:48.384Z,54.49
2018-06-20T08:35:17.918Z,54.30
2018-06-20T08:37:47.280Z,54.34
2018-06-20T08:40:16.469Z,53.18
2018-06-20T08:42:45.686Z,52.40
2018-06-20T08:45:14.825Z,52.77
2018-06-20T08:47:43.942Z,54.29
2018-06-20T08:50:13.308Z,54.35
2018-06-20T08:52:43.901Z,53.41
2018-06-20T08:55:13.046Z,52.85
2018-06-20T08:57:42.145Z,53.92
2018-06-20T09:00:11.367Z,53.83
2018-06-20T09:02:40.488Z,53.73
2018-06-20T09:07:18.461Z,53.22
2018-06-20T09:09:52.939Z,53.01
2018-06-20T09:12:27.464Z,51.77
2018-06-20T09:15:01.965Z,52.22
2018-06-20T09:17:36.914Z,52.93
2018-06-20T09:20:07.080Z,52.47
2018-06-20T09:22:38.038Z,51.78
2018-06-20T09:25:07.153Z,53.01
2018-06-20T09:27:36.386Z,52.39
2018-06-20T09:30:05.893Z,51.43
2018-06-20T09:32:35.177Z,52.25
2018-06-20T09:35:04.844Z,51.92
2018-06-20T09:37:34.076Z,51.95
2018-06-20T09:40:03.229Z,51.69
2018-06-20T09:42:32.542Z,51.55
2018-06-20T09:45:01.998Z,50.54
2018-06-20T09:47:31.148Z,51.07
2018-06-20T09:50:04.522Z,51.24
2018-06-20T09:52:33.771Z,51.78
2018-06-20T09:55:02.850Z,51.39
2018-06-20T09:57:31.989Z,49.89
2018-06-20T10:02:10.015Z,51.94
2018-06-20T10:04:44.484Z,52.22
2018-06-20T10:07:16.247Z,51.30
2018-06-20T10:09:59.669Z,50.63
2018-06-20T10:14:35.844Z,51.32
2018-06-20T10:17:05.584Z,52.00
2018-06-20T10:19:35.791Z,51.29
2018-06-20T10:22:05.894Z,49.55
2018-06-20T10:24:34.989Z,49.98
2018-06-20T10:27:04.122Z,49.32
2018-06-20T10:29:33.216Z,48.05
2018-06-20T10:32:02.303Z,48.57
2018-06-20T10:34:31.580Z,48.33
2018-06-20T10:37:00.804Z,48.31
2018-06-20T10:39:30.028Z,48.87
2018-06-20T10:41:59.189Z,49.16
2018-06-20T10:44:28.376Z,48.45
2018-06-20T10:47:03.129Z,47.65
2018-06-20T10:49:32.305Z,46.32
2018-06-20T10:52:01.489Z,47.24
2018-06-20T10:54:30.662Z,46.83
2018-06-20T10:57:05.154Z,46.77
2018-06-20T10:59:39.543Z,46.39
2018-06-20T11:02:14.208Z,47.28
2018-06-20T11:04:48.511Z,47.25
2018-06-20T11:07:23.000Z,46.53
2018-06-20T11:09:57.520Z,46.20
2018-06-20T11:12:32.094Z,46.83
2018-06-20T11:15:02.400Z,47.00
2018-06-20T11:17:31.466Z,46.92
2018-06-20T11:20:05.483Z,46.54
2018-06-20T11:22:34.935Z,45.59
2018-06-20T11:25:04.113Z,45.80
2018-06-20T11:27:33.247Z,44.39
2018-06-20T11:30:02.473Z,44.75
2018-06-20T11:32:31.585Z,44.18
2018-06-20T11:35:01.050Z,43.06
2018-06-20T11:37:30.265Z,42.75
2018-06-20T11:40:00.384Z,42.78
2018-06-20T11:42:29.524Z,41.55
2018-06-20T11:44:58.642Z,42.49
2018-06-20T11:47:33.510Z,41.52
2018-06-20T11:50:02.578Z,41.03
2018-06-20T11:52:37.071Z,41.00
2018-06-20T11:55:11.529Z,41.54
2018-06-20T11:57:40.751Z,42.40
2018-06-20T12:00:14.993Z,43.29
2018-06-20T12:02:49.521Z,43.94
2018-06-20T12:05:23.913Z,43.20
2018-06-20T12:07:58.369Z,40.34
2018-06-20T12:10:32.619Z,40.39
2018-06-20T12:13:07.897Z,40.63
2018-06-20T12:15:42.373Z,39.52
2018-06-20T12:18:16.725Z,39.71
2018-06-20T12:20:51.156Z,39.36
2018-06-20T12:23:26.047Z,38.90
2018-06-20T12:26:00.799Z,37.66
2018-06-20T12:28:35.666Z,38.43
2018-06-20T12:31:11.056Z,39.45
2018-06-20T12:33:45.625Z,40.88
2018-06-20T12:36:20.122Z,41.58
2018-06-20T12:38:54.516Z,42.31
2018-06-20T12:41:28.904Z,43.08
2018-06-20T12:44:03.312Z,43.46
2018-06-20T12:46:37.574Z,42.47
2018-06-20T12:49:07.203Z,43.10
2018-06-20T12:51:36.298Z,42.85
2018-06-20T12:54:05.532Z,42.19
2018-06-20T12:56:34.622Z,40.72
2018-06-20T12:59:03.856Z,41.04
2018-06-20T13:01:32.911Z,41.20
2018-06-20T13:04:02.044Z,41.36
2018-06-20T13:06:31.053Z,40.19
2018-06-20T13:09:00.209Z,39.60
2018-06-20T13:11:29.802Z,37.91
2018-06-20T13:13:58.931Z,37.88
2018-06-20T13:16:28.052Z,36.78
2018-06-20T13:19:00.349Z,36.79
2018-06-20T13:21:30.141Z,36.80
2018-06-20T13:23:59.321Z,36.72
2018-06-20T13:26:28.501Z,37.54
2018-06-20T13:28:57.711Z,36.56
2018-06-20T13:31:32.106Z,36.76
2018-06-20T13:34:06.666Z,36.98
2018-06-20T13:36:41.012Z,37.93
2018-06-20T13:39:15.403Z,37.68
2018-06-20T13:41:49.730Z,36.71
2018-06-20T13:44:27.256Z,36.73
2018-06-20T13:47:01.881Z,36.53
2018-06-20T13:49:31.241Z,35.80
2018-06-20T13:52:00.537Z,36.43
2018-06-20T13:54:29.588Z,35.61
2018-06-20T13:56:58.678Z,36.53
2018-06-20T13:59:28.202Z,36.90
2018-06-20T14:01:57.329Z,36.88
2018-06-20T14:04:26.765Z,38.18
2018-06-20T14:06:55.963Z,37.14
2018-06-20T14:09:25.419Z,35.50
2018-06-20T14:11:55.081Z,34.43
2018-06-20T14:14:24.235Z,33.55
2018-06-20T14:16:53.380Z,34.31
2018-06-20T14:20:29.313Z,35.69
2018-06-20T14:22:58.497Z,36.73
2018-06-20T14:25:29.141Z,37.03
2018-06-20T14:27:58.685Z,37.33
2018-06-20T14:30:33.066Z,36.77
2018-06-20T14:33:07.378Z,37.94
2018-06-20T14:35:47.431Z,37.46
2018-06-20T14:38:21.850Z,37.51
2018-06-20T14:40:56.218Z,35.72
2018-06-20T14:43:30.749Z,35.78
2018-06-20T14:46:05.175Z,36.22
2018-06-20T14:48:34.296Z,35.37
2018-06-20T14:51:03.499Z,35.15
2018-06-20T14:53:32.884Z,34.22
2018-06-20T14:56:01.997Z,34.10
2018-06-20T14:58:31.661Z,34.15
2018-06-20T15:01:00.854Z,33.88
2018-06-20T15:03:30.674Z,33.79
2018-06-20T15:05:59.897Z,32.89
2018-06-20T15:08:29.225Z,31.62
2018-06-20T15:10:58.513Z,33.59
2018-06-20T15:13:27.715Z,33.93
2018-06-20T15:16:00.947Z,32.64
2018-06-20T15:18:30.190Z,32.89
2018-06-20T15:20:59.327Z,33.04
2018-06-20T15:23:28.453Z,33.02
2018-06-20T15:26:02.823Z,33.16
2018-06-20T15:28:37.294Z,32.22
2018-06-20T15:31:12.131Z,32.38
2018-06-20T15:33:46.697Z,31.57
2018-06-20T15:36:20.905Z,31.23
2018-06-20T15:38:50.101Z,30.17
2018-06-20T15:41:19.396Z,29.57
2018-06-20T15:43:48.534Z,29.94
2018-06-20T15:46:17.736Z,30.74
2018-06-20T15:48:47.999Z,32.26
2018-06-20T15:51:17.090Z,33.74
2018-06-20T15:53:46.291Z,33.34
2018-06-20T15:56:15.493Z,33.71
2018-06-20T15:58:44.609Z,34.72
2018-06-20T16:01:13.738Z,34.77
2018-06-20T16:03:42.785Z,33.88
2018-06-20T16:06:11.849Z,33.66
2018-06-20T16:08:46.235Z,33.01
2018-06-20T16:11:15.277Z,31.87
2018-06-20T16:13:44.552Z,31.62
2018-06-20T16:16:13.775Z,31.97
2018-06-20T16:18:48.010Z,32.61
2018-06-20T16:21:22.313Z,30.45
2018-06-20T16:23:56.888Z,32.44
2018-06-20T16:26:31.324Z,31.05
2018-06-20T16:29:05.931Z,32.31
2018-06-20T16:31:35.151Z,32.19
2018-06-20T16:34:05.165Z,30.91
2018-06-20T16:36:34.415Z,30.59
2018-06-20T16:39:03.713Z,31.46
2018-06-20T16:41:32.880Z,32.10
2018-06-20T16:44:01.961Z,31.72
2018-06-20T16:46:31.263Z,31.86
2018-06-20T16:49:00.521Z,32.01
2018-06-20T16:51:29.728Z,30.63
2018-06-20T16:53:59.056Z,30.67
2018-06-20T16:56:28.944Z,30.21
2018-06-20T16:59:04.697Z,30.63
2018-06-20T17:01:39.163Z,31.06
2018-06-20T17:04:08.296Z,29.50
2018-06-20T17:06:37.844Z,29.49
2018-06-20T17:09:08.411Z,30.58
2018-06-20T17:11:37.668Z,32.46
2018-06-20T17:14:12.015Z,33.63
2018-06-20T17:16:46.552Z,33.71
2018-06-20T17:19:20.885Z,34.28
2018-06-20T17:21:55.413Z,34.76
2018-06-20T17:24:30.188Z,35.06
2018-06-20T17:26:59.381Z,35.51
2018-06-20T17:29:28.553Z,35.61
2018-06-20T17:31:57.616Z,36.41
2018-06-20T17:34:26.790Z,37.11
2018-06-20T17:36:56.293Z,36.50
2018-06-20T17:39:25.486Z,37.65
2018-06-20T17:41:54.797Z,37.19
2018-06-20T17:44:24.119Z,37.93
2018-06-20T17:46:53.287Z,38.29
2018-06-20T17:49:22.485Z,38.53
2018-06-20T17:51:51.804Z,38.51
2018-06-20T17:54:21.053Z,38.51
2018-06-20T17:56:50.140Z,39.43
2018-06-20T17:59:19.294Z,39.00
2018-06-20T18:01:48.470Z,38.42
2018-06-20T18:04:23.026Z,38.68
2018-06-20T18:06:57.417Z,39.02
2018-06-20T18:09:32.970Z,39.44
2018-06-20T18:12:08.631Z,39.35
2018-06-20T18:14:43.070Z,39.91
2018-06-20T18:17:12.236Z,39.79
2018-06-20T18:19:41.346Z,39.11
2018-06-20T18:22:10.424Z,38.97
2018-06-20T18:24:39.734Z,39.61
2018-06-20T18:27:08.915Z,39.49
2018-06-20T18:29:38.086Z,39.62
2018-06-20T18:32:07.469Z,39.57
2018-06-20T18:34:36.665Z,39.26
2018-06-20T18:37:05.828Z,39.63
2018-06-20T18:39:40.279Z,39.08
2018-06-20T18:42:09.501Z,39.61
2018-06-20T18:44:38.725Z,39.61
2018-06-20T18:47:07.833Z,38.67
2018-06-20T18:49:37.230Z,38.79
2018-06-20T18:52:06.501Z,39.61
2018-06-20T18:54:38.645Z,39.14
2018-06-20T18:57:12.005Z,40.66
2018-06-20T18:59:46.532Z,40.48
2018-06-20T19:02:21.700Z,41.63
2018-06-20T19:04:56.088Z,41.44
2018-06-20T19:07:30.594Z,41.03
2018-06-20T19:09:59.768Z,41.52
2018-06-20T19:12:28.996Z,42.23
2018-06-20T19:14:58.746Z,41.60
2018-06-20T19:17:27.885Z,41.23
2018-06-20T19:19:57.065Z,41.34
2018-06-20T19:22:26.277Z,42.50
2018-06-20T19:24:55.787Z,41.82
2018-06-20T19:27:25.485Z,41.55
2018-06-20T19:29:55.247Z,43.07
2018-06-20T19:32:24.718Z,42.45
2018-06-20T19:34:53.936Z,44.06
2018-06-20T19:37:23.112Z,43.33
2018-06-20T19:39:53.869Z,43.52
2018-06-20T19:42:25.089Z,43.62
2018-06-20T19:44:54.435Z,45.17
2018-06-20T19:47:23.654Z,45.45
2018-06-20T19:49:52.810Z,45.78
2018-06-20T19:52:22.036Z,46.57
2018-06-20T19:54:51.179Z,46.68
2018-06-20T19:57:20.397Z,47.66
2018-06-20T19:59:49.791Z,47.54
2018-06-20T20:02:19.921Z,48.13
2018-06-20T20:04:49.108Z,48.00
2018-06-20T20:07:18.417Z,49.67
2018-06-20T20:09:47.718Z,49.04
2018-06-20T20:12:17.052Z,50.32
2018-06-20T20:14:47.098Z,50.94
2018-06-20T20:17:16.213Z,50.89
2018-06-20T20:19:45.437Z,51.04
2018-06-20T20:22:14.734Z,51.57
2018-06-20T20:24:43.930Z,54.57
2018-06-20T20:27:13.210Z,53.69
2018-06-20T20:29:42.448Z,54.05
2018-06-20T20:32:12.410Z,54.43
2018-06-20T20:34:42.381Z,54.23
2018-06-20T20:37:11.558Z,54.42
2018-06-20T20:39:40.759Z,54.23
2018-06-20T20:42:11.070Z,54.21
2018-06-20T20:44:40.346Z,54.82
2018-06-20T20:47:09.536Z,54.90
2018-06-20T20:49:39.168Z,55.04
2018-06-20T20:52:08.927Z,55.33
2018-06-20T20:54:38.489Z,55.25
2018-06-20T20:57:08.633Z,55.47
2018-06-20T20:59:39.694Z,55.71
2018-06-20T21:02:09.176Z,56.07
2018-06-20T21:04:38.366Z,55.72
2018-06-20T21:07:07.447Z,56.15
2018-06-20T21:09:36.750Z,56.39
2018-06-20T21:12:06.133Z,55.62
2018-06-20T21:14:35.332Z,56.75
2018-06-20T21:17:04.745Z,56.45
2018-06-20T21:19:33.874Z,56.38
2018-06-20T21:22:03.041Z,57.32
2018-06-20T21:24:32.236Z,56.46
2018-06-20T21:27:01.346Z,56.53
2018-06-20T21:29:30.623Z,57.44
2018-06-20T21:31:59.804Z,57.54
2018-06-20T21:34:29.138Z,58.12
2018-06-20T21:36:58.289Z,57.56
2018-06-20T21:39:27.395Z,57.80
2018-06-20T21:41:56.506Z,58.31
2018-06-20T21:44:25.786Z,58.15
2018-06-20T21:46:55.017Z,57.80
2018-06-20T21:49:24.091Z,56.98
2018-06-20T21:51:53.229Z,56.51
2018-06-20T21:54:22.562Z,56.88
2018-06-20T21:56:52.199Z,56.54
2018-06-20T21:59:21.281Z,57.07
2018-06-20T22:01:50.429Z,56.44
2018-06-20T22:04:20.220Z,56.37
2018-06-20T22:06:49.661Z,56.13
2018-06-20T22:09:18.768Z,56.03
2018-06-20T22:11:48.023Z,56.08
2018-06-20T22:14:18.124Z,55.92
2018-06-20T22:16:47.410Z,56.58
2018-06-20T22:19:16.566Z,58.35
2018-06-20T22:21:45.738Z,59.01
2018-06-20T22:24:14.920Z,60.77
2018-06-20T22:26:44.296Z,60.70
2018-06-20T22:29:13.434Z,61.00
2018-06-20T22:31:42.741Z,61.06
2018-06-20T22:34:11.906Z,60.83
2018-06-20T22:36:41.138Z,61.34
2018-06-20T22:39:10.970Z,61.74
2018-06-20T22:41:40.090Z,63.12
2018-06-20T22:44:09.353Z,63.16
2018-06-20T22:46:38.591Z,62.51
2018-06-20T22:49:08.067Z,63.05
2018-06-20T22:51:37.211Z,63.64
2018-06-20T22:54:06.320Z,64.42
2018-06-20T22:56:35.863Z,63.80
2018-06-20T22:59:05.043Z,63.96
2018-06-20T23:01:34.103Z,63.51
2018-06-20T23:04:03.254Z,64.51
2018-06-20T23:06:32.866Z,65.11
2018-06-20T23:09:02.054Z,64.58
2018-06-20T23:11:35.285Z,64.84
2018-06-20T23:14:04.551Z,65.21
2018-06-20T23:16:33.599Z,65.69
2018-06-20T23:19:02.725Z,65.69
2018-06-20T23:21:32.037Z,65.64
2018-06-20T23:24:01.318Z,65.35
2018-06-20T23:26:30.570Z,65.34
2018-06-20T23:29:00.172Z,65.08
2018-06-20T23:31:29.352Z,65.93
2018-06-20T23:33:58.537Z,66.34
2018-06-20T23:36:27.627Z,65.24
2018-06-20T23:38:56.733Z,65.89
2018-06-20T23:41:25.907Z,65.58
2018-06-20T23:43:55.073Z,66.48
2018-06-20T23:46:24.166Z,66.39
2018-06-20T23:48:53.350Z,67.05
2018-06-20T23:51:22.553Z,67.37
2018-06-20T23:53:52.050Z,68.02
2018-06-20T23:56:21.121Z,67.53
2018-06-20T23:58:50.213Z,68.45
